Plainedge, New York
Current Conditions -  °F | °C
As of 12:51 AM on Wednesday 26 Nov 2014 (Local Time) from KJFK Reporting Station
Overcast Overcast  
Wind Chill: 11°   Ceiling: 14000
Heat Index: 11°   Visibility: 10mi
Dew Point: -2°   Wind: 7mph
Humidity: 43%   Direction: 290°WNW
Pressure: 30.17"   Gusts: NA
Location:  40.7255°N, 73.5165°W
Report Text: KJFK 260551Z 29006KT 10SM OVC140 11/M02 A3017 RMK AO2 SLP215 T01061017 10106 20089 51008 $
Loading
Personal Weather Stations






























Interactive Weather Map New forecast layout! Learn more

10-Day Weather Forecast

Advertisements
Track Severe Weather on mobile